createdAt,value
2022-12-12T00:04:20.107Z,99.5
2022-12-12T00:09:26.207Z,99.5
2022-12-12T00:14:32.319Z,99.5
2022-12-12T00:19:38.413Z,99.5
2022-12-12T00:24:44.478Z,99.5
2022-12-12T00:29:50.632Z,99.5
2022-12-12T00:34:56.714Z,99.5
2022-12-12T00:40:02.777Z,99.5
2022-12-12T00:45:07.907Z,99.5
2022-12-12T00:50:13.981Z,99.5
2022-12-12T00:55:20.085Z,99.5
2022-12-12T01:00:26.197Z,99.5
2022-12-12T01:05:32.288Z,99.5
2022-12-12T01:10:38.372Z,99.5
2022-12-12T01:15:44.482Z,99.5
2022-12-12T01:20:50.582Z,99.5
2022-12-12T01:25:56.670Z,99.5
2022-12-12T01:31:02.773Z,99.5
2022-12-12T01:36:08.868Z,99.5
2022-12-12T01:41:14.960Z,99.5
2022-12-12T01:46:21.059Z,99.5
2022-12-12T01:51:26.192Z,99.5
2022-12-12T01:56:32.271Z,99.5
2022-12-12T02:01:38.356Z,99.5
2022-12-12T02:06:44.468Z,99.5
2022-12-12T02:11:50.563Z,99.5
2022-12-12T02:16:56.649Z,99.5
2022-12-12T02:22:02.754Z,99.5
2022-12-12T02:27:08.870Z,99.5
2022-12-12T02:32:14.943Z,99
2022-12-12T02:37:21.087Z,99.5
2022-12-12T02:42:27.148Z,99.5
2022-12-12T02:47:33.235Z,99.5
2022-12-12T02:52:39.375Z,99.5
2022-12-12T02:57:44.448Z,99.5
2022-12-12T03:02:50.545Z,99.5
2022-12-12T03:07:56.643Z,99.5
2022-12-12T03:13:02.745Z,99.5
2022-12-12T03:18:08.840Z,99
2022-12-12T03:23:15.213Z,99
2022-12-12T03:28:21.032Z,99.5
2022-12-12T03:33:27.116Z,99.5
2022-12-12T03:38:33.229Z,99.5
2022-12-12T03:43:39.318Z,99.5
2022-12-12T03:48:45.446Z,99.5
2022-12-12T03:53:51.521Z,99.5
2022-12-12T03:58:57.608Z,99.5
2022-12-12T04:04:02.729Z,99.5
2022-12-12T04:09:08.831Z,99.5
2022-12-12T04:14:14.921Z,99.5
2022-12-12T04:19:21.064Z,99.5
2022-12-12T04:24:27.120Z,99.5
2022-12-12T04:29:33.215Z,99.5
2022-12-12T04:34:39.300Z,99.5
2022-12-12T04:39:44.416Z,99.5
2022-12-12T04:44:50.522Z,99.5
2022-12-12T04:49:56.617Z,99.5
2022-12-12T04:55:02.801Z,99.5
2022-12-12T05:00:08.826Z,99.5
2022-12-12T05:05:14.925Z,99.5
2022-12-12T05:10:21.027Z,99.5
2022-12-12T05:15:27.103Z,99.5
2022-12-12T05:20:33.301Z,99.5
2022-12-12T05:25:39.298Z,99.5
2022-12-12T05:30:45.437Z,99.5
2022-12-12T05:35:51.479Z,99.5
2022-12-12T05:40:57.589Z,99.5
2022-12-12T05:46:02.688Z,99.5
2022-12-12T05:51:08.791Z,99.5
2022-12-12T05:56:14.991Z,99.5
2022-12-12T06:01:21.001Z,99.5
2022-12-12T06:06:27.079Z,99.5
2022-12-12T06:11:33.218Z,99.5
2022-12-12T06:16:39.283Z,99.5
2022-12-12T06:21:45.368Z,99.5
2022-12-12T06:26:51.460Z,99.5
2022-12-12T06:31:57.605Z,99.5
2022-12-12T06:37:03.671Z,99.5
2022-12-12T06:42:09.766Z,99.5
2022-12-12T06:47:15.847Z,99.5
2022-12-12T06:52:21.021Z,99.5
2022-12-12T06:57:27.062Z,99.5
2022-12-12T07:02:33.174Z,99.5
2022-12-12T07:07:39.277Z,99.5
2022-12-12T07:12:45.351Z,99.5
2022-12-12T07:17:51.518Z,99.5
2022-12-12T07:22:57.623Z,99.5
2022-12-12T07:28:03.638Z,99.5
2022-12-12T07:33:09.744Z,99.5
2022-12-12T07:38:15.838Z,99.5
2022-12-12T07:43:22.036Z,99.5
2022-12-12T07:48:28.183Z,99.5
2022-12-12T07:53:34.130Z,99.5
2022-12-12T07:58:39.307Z,99.5
2022-12-12T08:03:45.472Z,99.5
2022-12-12T08:08:51.574Z,99.5
2022-12-12T08:13:57.652Z,99.5
2022-12-12T08:19:03.672Z,99.5
2022-12-12T08:24:09.731Z,99.5
2022-12-12T08:29:15.815Z,99.5
2022-12-12T08:34:21.925Z,99.5
2022-12-12T08:39:28.089Z,99.5
2022-12-12T08:44:34.132Z,99
2022-12-12T08:49:40.236Z,98
2022-12-12T08:54:46.311Z,98
2022-12-12T08:59:52.461Z,98.5
2022-12-12T09:04:57.633Z,98
2022-12-12T09:10:03.635Z,97
2022-12-12T09:15:09.737Z,97
2022-12-12T09:20:15.838Z,96.5
2022-12-12T09:25:21.935Z,96
2022-12-12T09:30:28.035Z,96
2022-12-12T09:35:34.120Z,94.5
2022-12-12T09:40:40.232Z,94.5
2022-12-12T09:45:46.318Z,94
2022-12-12T09:50:52.496Z,93
2022-12-12T09:55:58.538Z,92.5
2022-12-12T10:01:04.632Z,91.5
2022-12-12T10:06:10.726Z,91
2022-12-12T10:11:15.979Z,90.5
2022-12-12T10:16:21.949Z,89.5
2022-12-12T10:21:28.048Z,90.5
2022-12-12T10:26:34.232Z,90.5
2022-12-12T10:31:40.285Z,90
2022-12-12T10:36:46.404Z,91
2022-12-12T10:41:52.486Z,90.5
2022-12-12T10:46:58.544Z,90
2022-12-12T10:52:04.636Z,89.5
2022-12-12T10:57:10.736Z,88.5
2022-12-12T11:02:16.826Z,88.5
2022-12-12T11:07:22.977Z,87
2022-12-12T11:12:29.028Z,87
2022-12-12T11:17:34.154Z,87.5
2022-12-12T11:22:40.294Z,87.5
2022-12-12T11:27:46.433Z,88
2022-12-12T11:32:52.442Z,86.5
2022-12-12T11:37:58.547Z,87
2022-12-12T11:43:04.656Z,86.5
2022-12-12T11:48:10.739Z,86.5
2022-12-12T11:53:16.943Z,86.5
2022-12-12T11:58:22.956Z,86
2022-12-12T12:03:29.034Z,85
2022-12-12T12:08:35.139Z,85
2022-12-12T12:13:41.252Z,84
2022-12-12T12:18:47.340Z,85.5
2022-12-12T12:23:52.467Z,85
2022-12-12T12:28:58.570Z,83
2022-12-12T12:34:04.650Z,85
2022-12-12T12:39:10.743Z,84
2022-12-12T12:44:16.905Z,86.5
2022-12-12T12:49:22.948Z,87.5
2022-12-12T12:54:29.074Z,88
2022-12-12T12:59:35.173Z,87.5
2022-12-12T13:04:41.293Z,89
2022-12-12T13:09:47.365Z,89.5
2022-12-12T13:14:53.585Z,89.5
2022-12-12T13:19:59.550Z,89.5
2022-12-12T13:25:05.825Z,90.5
2022-12-12T13:30:10.763Z,90.5
2022-12-12T13:35:16.856Z,92
2022-12-12T13:40:22.954Z,91
2022-12-12T13:45:29.061Z,92
2022-12-12T13:50:35.183Z,91
2022-12-12T13:55:41.279Z,92
2022-12-12T14:00:47.441Z,92.5
2022-12-12T14:05:53.450Z,93.5
2022-12-12T14:10:59.639Z,93.5
2022-12-12T14:16:05.710Z,93.5
2022-12-12T14:21:11.737Z,94
2022-12-12T14:26:17.912Z,94
2022-12-12T14:31:23.966Z,94.5
2022-12-12T14:36:29.062Z,95.5
2022-12-12T14:41:35.284Z,95
2022-12-12T14:46:41.257Z,94.5
2022-12-12T14:51:47.406Z,96
2022-12-12T14:56:53.452Z,95
2022-12-12T15:01:59.567Z,95.5
2022-12-12T15:07:05.686Z,95.5
2022-12-12T15:12:11.777Z,96
2022-12-12T15:17:17.851Z,95.5
2022-12-12T15:22:24.098Z,96
2022-12-12T15:27:30.046Z,95.5
2022-12-12T15:32:36.162Z,95.5
2022-12-12T15:37:42.307Z,96
2022-12-12T15:42:47.384Z,95
2022-12-12T15:47:53.527Z,95.5
2022-12-12T15:52:59.565Z,96
2022-12-12T15:58:05.656Z,94.5
2022-12-12T16:03:11.751Z,95
2022-12-12T16:08:17.855Z,95
2022-12-12T16:13:23.966Z,95
2022-12-12T16:18:30.064Z,95
2022-12-12T16:23:36.144Z,95
2022-12-12T16:28:42.316Z,94.5
2022-12-12T16:33:48.354Z,95
2022-12-12T16:38:54.452Z,94.5
2022-12-12T16:44:00.556Z,95.5
2022-12-12T16:49:05.657Z,95
2022-12-12T16:54:11.760Z,94.5
2022-12-12T16:59:17.865Z,95.5
2022-12-12T17:04:23.973Z,96
2022-12-12T17:09:30.083Z,95
2022-12-12T17:14:36.169Z,93.5
2022-12-12T17:19:42.252Z,95
2022-12-12T17:24:48.383Z,95.5
2022-12-12T17:29:54.542Z,95
2022-12-12T17:35:00.567Z,92.5
2022-12-12T17:40:06.649Z,94
2022-12-12T17:45:12.757Z,94.5
2022-12-12T17:50:18.844Z,94.5
2022-12-12T17:55:23.962Z,95
2022-12-12T18:00:30.051Z,94
2022-12-12T18:05:36.169Z,93
2022-12-12T18:10:42.260Z,93.5
2022-12-12T18:15:48.364Z,93
2022-12-12T18:20:54.459Z,93.5
2022-12-12T18:26:00.565Z,93
2022-12-12T18:31:06.656Z,92
2022-12-12T18:36:12.744Z,93
2022-12-12T18:41:18.893Z,91.5
2022-12-12T18:46:24.954Z,93
2022-12-12T18:51:31.065Z,93
2022-12-12T19:01:43.264Z,93.5
2022-12-12T19:06:48.436Z,93
2022-12-12T19:11:54.533Z,92.5
2022-12-12T19:17:00.566Z,92.5
2022-12-12T19:22:06.642Z,92
2022-12-12T19:27:12.764Z,91.5
2022-12-12T19:32:18.855Z,92
2022-12-12T19:37:24.963Z,92
2022-12-12T19:42:31.058Z,92.5
2022-12-12T19:47:37.142Z,94
2022-12-12T19:52:43.239Z,93.5
2022-12-12T19:57:49.339Z,94
2022-12-12T20:02:55.431Z,95
2022-12-12T20:08:01.522Z,95.5
2022-12-12T20:13:06.650Z,96.5
2022-12-12T20:18:12.745Z,97
2022-12-12T20:23:18.845Z,97.5
2022-12-12T20:28:24.991Z,98
2022-12-12T20:33:31.060Z,99.5
2022-12-12T20:38:37.186Z,99.5
2022-12-12T20:43:43.389Z,99.5
2022-12-12T20:48:49.393Z,99.5
2022-12-12T20:53:55.452Z,99.5
2022-12-12T20:59:01.549Z,99.5
2022-12-12T21:04:07.646Z,99.5
2022-12-12T21:09:13.760Z,99.5
2022-12-12T21:14:19.869Z,99.5
2022-12-12T21:19:25.087Z,99.5
2022-12-12T21:24:31.079Z,99.5
2022-12-12T21:29:37.249Z,99.5
2022-12-12T21:34:43.315Z,99.5
2022-12-12T21:39:49.443Z,99.5
2022-12-12T21:44:54.597Z,99.5
2022-12-12T21:50:00.635Z,99.5
2022-12-12T21:55:06.738Z,99.5
2022-12-12T22:00:12.842Z,99.5
2022-12-12T22:05:18.958Z,99.5
2022-12-12T22:10:25.058Z,99.5
2022-12-12T22:15:31.140Z,99.5
2022-12-12T22:20:37.253Z,99.5
2022-12-12T22:25:43.350Z,99.5
2022-12-12T22:30:49.449Z,99.5
2022-12-12T22:35:55.540Z,99.5
2022-12-12T22:41:01.652Z,99.5
2022-12-12T22:46:07.743Z,99.5
2022-12-12T22:51:12.853Z,99.5
2022-12-12T22:56:18.957Z,99.5
2022-12-12T23:01:25.064Z,99.5
2022-12-12T23:06:31.162Z,99.5
2022-12-12T23:11:37.285Z,99.5
2022-12-12T23:16:43.374Z,99.5
2022-12-12T23:21:49.490Z,99.5
2022-12-12T23:26:55.746Z,99.5
2022-12-12T23:32:01.703Z,99.5
2022-12-12T23:37:07.790Z,99.5
2022-12-12T23:42:13.895Z,99.5
2022-12-12T23:47:20.011Z,99.5
2022-12-12T23:52:26.110Z,99.5
2022-12-12T23:57:31.240Z,99.5
